createdAt,value
2022-10-17T00:00:39.622Z,3.05
2022-10-17T00:03:08.904Z,3.30
2022-10-17T00:05:41.607Z,3.20
2022-10-17T00:08:09.459Z,2.97
2022-10-17T00:10:37.901Z,3.63
2022-10-17T00:13:06.217Z,3.22
2022-10-17T00:15:34.706Z,3.00
2022-10-17T00:18:03.314Z,3.45
2022-10-17T00:20:32.997Z,3.78
2022-10-17T00:23:00.818Z,3.60
2022-10-17T00:25:28.937Z,3.60
2022-10-17T00:27:56.783Z,3.30
2022-10-17T00:30:24.592Z,4.53
2022-10-17T00:32:52.492Z,3.72
2022-10-17T00:35:20.606Z,3.40
2022-10-17T00:37:49.769Z,4.68
2022-10-17T00:40:17.790Z,3.60
2022-10-17T00:42:45.680Z,3.65
2022-10-17T00:45:21.827Z,4.13
2022-10-17T00:47:54.251Z,3.78
2022-10-17T00:50:22.898Z,3.92
2022-10-17T00:52:52.962Z,3.95
2022-10-17T00:55:24.289Z,4.13
2022-10-17T00:57:52.760Z,4.18
2022-10-17T01:00:21.449Z,3.72
2022-10-17T01:02:49.870Z,3.80
2022-10-17T01:05:18.833Z,3.85
2022-10-17T01:07:48.202Z,4.05
2022-10-17T01:10:18.330Z,3.50
2022-10-17T01:12:55.284Z,3.78
2022-10-17T01:15:41.543Z,4.72
2022-10-17T01:18:16.492Z,3.67
2022-10-17T01:21:17.732Z,3.92
2022-10-17T01:24:19.392Z,4.00
2022-10-17T01:27:06.609Z,3.97
2022-10-17T01:29:48.132Z,3.80
2022-10-17T01:32:21.521Z,4.13
2022-10-17T01:34:58.917Z,3.83
2022-10-17T01:37:31.417Z,3.80
2022-10-17T01:40:05.843Z,4.28
2022-10-17T01:42:40.195Z,4.60
2022-10-17T01:45:13.646Z,4.95
2022-10-17T01:47:44.009Z,4.43
2022-10-17T01:50:16.551Z,5.00
2022-10-17T01:52:49.784Z,4.82
2022-10-17T01:55:22.028Z,4.72
2022-10-17T01:57:52.999Z,5.07
2022-10-17T02:00:24.263Z,4.53
2022-10-17T02:02:58.021Z,4.45
2022-10-17T02:05:32.162Z,5.10
2022-10-17T02:08:00.249Z,5.38
2022-10-17T02:10:36.238Z,4.43
2022-10-17T02:13:17.578Z,5.00
2022-10-17T02:16:03.505Z,4.50
2022-10-17T02:18:48.718Z,5.45
2022-10-17T02:21:25.230Z,4.63
2022-10-17T02:23:57.097Z,4.70
2022-10-17T02:26:31.020Z,4.80
2022-10-17T02:29:08.027Z,5.05
2022-10-17T02:31:40.934Z,5.60
2022-10-17T02:34:14.286Z,4.35
2022-10-17T02:36:47.475Z,5.05
2022-10-17T02:39:17.671Z,5.13
2022-10-17T02:41:47.023Z,5.03
2022-10-17T02:44:15.292Z,5.15
2022-10-17T02:46:46.166Z,5.22
2022-10-17T02:49:19.815Z,5.55
2022-10-17T02:51:53.360Z,5.50
2022-10-17T02:54:26.054Z,4.43
2022-10-17T02:57:01.861Z,5.57
2022-10-17T02:59:31.641Z,4.80
2022-10-17T03:02:03.160Z,4.85
2022-10-17T03:04:32.460Z,4.60
2022-10-17T03:07:00.294Z,4.90
2022-10-17T03:09:28.213Z,4.85
2022-10-17T03:11:56.066Z,5.07
2022-10-17T03:14:23.860Z,5.38
2022-10-17T03:16:51.866Z,5.25
2022-10-17T03:19:19.769Z,4.88
2022-10-17T03:21:49.462Z,4.93
2022-10-17T03:24:17.410Z,5.15
2022-10-17T03:29:14.537Z,5.20
2022-10-17T03:31:42.915Z,5.28
2022-10-17T03:34:10.744Z,4.68
2022-10-17T03:36:38.604Z,4.63
2022-10-17T03:39:07.813Z,4.57
2022-10-17T03:41:36.157Z,4.82
2022-10-17T03:44:04.103Z,4.72
2022-10-17T03:46:31.931Z,5.22
2022-10-17T03:48:59.785Z,4.88
2022-10-17T03:51:27.845Z,4.93
2022-10-17T03:53:55.744Z,5.55
2022-10-17T03:56:26.314Z,5.43
2022-10-17T03:58:54.699Z,5.07
2022-10-17T04:01:22.994Z,5.32
2022-10-17T04:03:51.897Z,5.28
2022-10-17T04:06:20.104Z,5.57
2022-10-17T04:08:48.690Z,5.88
2022-10-17T04:11:18.362Z,5.35
2022-10-17T04:13:47.752Z,5.22
2022-10-17T04:16:17.494Z,5.00
2022-10-17T04:18:45.514Z,5.32
2022-10-17T04:21:14.019Z,5.50
2022-10-17T04:23:41.746Z,5.28
2022-10-17T04:26:09.543Z,5.78
2022-10-17T04:31:09.430Z,5.20
2022-10-17T04:33:37.235Z,5.30
2022-10-17T04:36:07.420Z,5.03
2022-10-17T04:38:35.530Z,5.40
2022-10-17T04:41:06.341Z,4.75
2022-10-17T04:43:36.229Z,4.93
2022-10-17T04:46:08.344Z,4.82
2022-10-17T04:48:36.340Z,4.75
2022-10-17T04:51:06.161Z,5.10
2022-10-17T04:53:35.500Z,5.53
2022-10-17T04:56:08.881Z,4.95
2022-10-17T04:58:37.084Z,4.43
2022-10-17T05:01:11.638Z,5.20
2022-10-17T05:03:39.903Z,4.28
2022-10-17T05:06:09.349Z,4.90
2022-10-17T05:08:37.544Z,4.88
2022-10-17T05:11:05.811Z,4.72
2022-10-17T05:13:34.674Z,5.38
2022-10-17T05:16:03.149Z,4.53
2022-10-17T05:18:32.316Z,8.15
2022-10-17T05:21:00.214Z,6.20
2022-10-17T05:23:30.201Z,7.10
2022-10-17T05:25:58.166Z,5.55
2022-10-17T05:28:26.318Z,5.05
2022-10-17T05:30:54.179Z,5.00
2022-10-17T05:33:23.156Z,4.95
2022-10-17T05:35:52.294Z,4.93
2022-10-17T05:38:20.449Z,4.53
2022-10-17T05:40:48.292Z,4.68
2022-10-17T05:43:16.769Z,5.47
2022-10-17T05:45:44.709Z,5.07
2022-10-17T05:48:12.529Z,5.55
2022-10-17T05:50:40.479Z,6.30
2022-10-17T05:53:09.679Z,6.60
2022-10-17T05:55:37.436Z,5.22
2022-10-17T05:58:05.507Z,5.05
2022-10-17T06:00:33.364Z,5.20
2022-10-17T06:03:01.125Z,4.65
2022-10-17T06:05:29.098Z,4.97
2022-10-17T06:08:01.034Z,5.00
2022-10-17T06:10:31.280Z,5.00
2022-10-17T06:12:59.035Z,4.95
2022-10-17T06:15:26.862Z,5.40
2022-10-17T06:17:54.806Z,4.78
2022-10-17T06:20:22.559Z,4.55
2022-10-17T06:22:50.371Z,4.68
2022-10-17T06:25:18.130Z,4.53
2022-10-17T06:27:47.253Z,5.07
2022-10-17T06:30:15.103Z,4.72
2022-10-17T06:32:43.280Z,5.00
2022-10-17T06:35:11.470Z,5.18
2022-10-17T06:37:39.569Z,4.97
2022-10-17T06:40:10.558Z,5.05
2022-10-17T06:42:38.507Z,4.50
2022-10-17T06:45:09.505Z,4.82
2022-10-17T06:47:38.057Z,5.40
2022-10-17T06:50:06.239Z,4.10
2022-10-17T06:52:34.088Z,5.50
2022-10-17T06:57:34.742Z,5.03
2022-10-17T07:00:02.568Z,4.80
2022-10-17T07:02:32.189Z,5.07
2022-10-17T07:05:00.304Z,4.65
2022-10-17T07:07:28.485Z,5.13
2022-10-17T07:09:56.463Z,5.18
2022-10-17T07:12:24.396Z,4.95
2022-10-17T07:14:52.341Z,4.65
2022-10-17T07:17:20.235Z,4.72
2022-10-17T07:19:49.467Z,5.68
2022-10-17T07:22:17.270Z,4.50
2022-10-17T07:24:45.304Z,4.70
2022-10-17T07:27:13.901Z,4.38
2022-10-17T07:29:41.886Z,4.72
2022-10-17T07:32:09.851Z,4.70
2022-10-17T07:34:38.597Z,3.83
2022-10-17T07:37:09.820Z,5.70
2022-10-17T07:39:39.814Z,4.63
2022-10-17T07:42:08.552Z,4.95
2022-10-17T07:44:36.591Z,4.50
2022-10-17T07:47:04.415Z,4.25
2022-10-17T07:49:32.349Z,4.95
2022-10-17T07:52:00.094Z,5.28
2022-10-17T07:54:29.192Z,4.53
2022-10-17T07:56:57.078Z,4.80
2022-10-17T07:59:25.141Z,4.15
2022-10-17T08:01:55.988Z,5.07
2022-10-17T08:04:24.308Z,4.95
2022-10-17T08:06:56.385Z,4.78
2022-10-17T08:09:29.756Z,4.55
2022-10-17T08:11:57.531Z,4.60
2022-10-17T08:14:25.354Z,4.55
2022-10-17T08:16:55.438Z,5.40
2022-10-17T08:19:23.182Z,4.32
2022-10-17T08:21:51.804Z,4.90
2022-10-17T08:24:19.756Z,4.72
2022-10-17T08:26:51.670Z,4.20
2022-10-17T08:29:20.349Z,4.13
2022-10-17T08:31:49.914Z,4.50
2022-10-17T08:34:19.021Z,4.53
2022-10-17T08:36:47.020Z,4.80
2022-10-17T08:39:14.778Z,4.75
2022-10-17T08:41:54.626Z,4.68
2022-10-17T08:44:34.412Z,4.40
2022-10-17T08:47:05.084Z,4.55
2022-10-17T08:49:40.465Z,4.40
2022-10-17T08:52:16.234Z,4.55
2022-10-17T08:54:47.472Z,4.10
2022-10-17T08:57:19.114Z,4.20
2022-10-17T08:59:51.956Z,4.70
2022-10-17T09:02:44.205Z,4.75
2022-10-17T09:05:28.360Z,4.03
2022-10-17T09:08:04.203Z,4.10
2022-10-17T09:10:44.255Z,4.28
2022-10-17T09:13:26.013Z,4.80
2022-10-17T09:16:07.586Z,4.13
2022-10-17T09:18:40.907Z,4.53
2022-10-17T09:21:19.757Z,4.47
2022-10-17T09:23:59.467Z,4.60
2022-10-17T09:26:37.462Z,4.38
2022-10-17T09:29:17.130Z,5.05
2022-10-17T09:31:50.153Z,4.75
2022-10-17T09:34:18.262Z,4.53
2022-10-17T09:36:46.054Z,5.15
2022-10-17T09:39:17.594Z,4.35
2022-10-17T09:41:49.802Z,4.13
2022-10-17T09:44:22.400Z,4.07
2022-10-17T09:47:01.549Z,4.40
2022-10-17T09:49:33.981Z,4.40
2022-10-17T09:52:04.169Z,4.50
2022-10-17T09:54:43.611Z,4.97
2022-10-17T09:57:14.224Z,3.60
2022-10-17T09:59:44.900Z,3.80
2022-10-17T10:02:20.097Z,3.83
2022-10-17T10:05:05.429Z,3.65
2022-10-17T10:07:36.239Z,3.78
2022-10-17T10:10:06.159Z,4.00
2022-10-17T10:12:37.082Z,3.92
2022-10-17T10:15:38.644Z,4.25
2022-10-17T10:18:32.756Z,3.60
2022-10-17T10:21:10.686Z,3.42
2022-10-17T10:23:41.281Z,3.50
2022-10-17T10:26:24.274Z,4.05
2022-10-17T10:28:55.989Z,3.58
2022-10-17T10:31:31.328Z,3.40
2022-10-17T10:34:02.574Z,2.90
2022-10-17T10:36:49.820Z,3.28
2022-10-17T10:39:33.839Z,3.35
2022-10-17T10:42:02.534Z,3.20
2022-10-17T10:44:32.436Z,3.30
2022-10-17T10:47:20.958Z,3.10
2022-10-17T10:49:51.271Z,2.97
2022-10-17T10:52:30.806Z,3.00
2022-10-17T10:55:08.011Z,3.60
2022-10-17T10:57:37.639Z,2.60
2022-10-17T11:00:13.120Z,2.95
2022-10-17T11:02:52.862Z,2.70
2022-10-17T11:05:25.369Z,2.30
2022-10-17T11:08:00.511Z,2.85
2022-10-17T11:10:34.611Z,2.25
2022-10-17T11:13:08.007Z,2.40
2022-10-17T11:15:41.721Z,2.20
2022-10-17T11:18:17.511Z,2.22
2022-10-17T11:20:53.957Z,2.47
2022-10-17T11:23:29.095Z,2.83
2022-10-17T11:26:00.838Z,2.15
2022-10-17T11:28:30.513Z,2.95
2022-10-17T11:31:05.731Z,3.15
2022-10-17T11:33:46.924Z,4.10
2022-10-17T11:36:17.605Z,3.00
2022-10-17T11:38:51.084Z,3.42
2022-10-17T11:41:23.531Z,3.17
2022-10-17T11:43:56.052Z,2.90
2022-10-17T11:46:25.787Z,2.60
2022-10-17T11:49:14.027Z,2.78
2022-10-17T11:52:04.408Z,2.53
2022-10-17T11:54:38.992Z,2.70
2022-10-17T11:57:24.439Z,2.42
2022-10-17T12:00:04.988Z,2.55
2022-10-17T12:02:43.299Z,2.58
2022-10-17T12:05:22.872Z,2.25
2022-10-17T12:07:56.739Z,2.05
2022-10-17T12:10:35.125Z,2.30
2022-10-17T12:13:35.751Z,2.78
2022-10-17T12:16:33.473Z,3.17
2022-10-17T12:19:41.509Z,2.65
2022-10-17T12:22:26.164Z,2.60
2022-10-17T12:25:00.272Z,2.00
2022-10-17T12:27:38.403Z,2.85
2022-10-17T12:30:24.956Z,2.40
2022-10-17T12:33:07.392Z,2.33
2022-10-17T12:35:38.206Z,2.10
2022-10-17T12:38:21.657Z,2.42
2022-10-17T12:41:00.755Z,2.92
2022-10-17T12:43:52.795Z,2.30
2022-10-17T12:46:50.923Z,2.40
2022-10-17T12:49:24.558Z,2.75
2022-10-17T12:52:37.459Z,2.53
2022-10-17T12:55:14.978Z,2.97
2022-10-17T12:57:50.909Z,2.80
2022-10-17T13:00:24.656Z,3.25
2022-10-17T13:02:55.761Z,2.75
2022-10-17T13:05:29.748Z,3.35
2022-10-17T13:08:01.178Z,2.80
2022-10-17T13:10:34.663Z,3.33
2022-10-17T13:13:10.221Z,3.40
2022-10-17T13:15:38.937Z,3.70
2022-10-17T13:18:07.351Z,3.33
2022-10-17T13:20:35.238Z,3.40
2022-10-17T13:23:03.731Z,3.58
2022-10-17T13:25:35.505Z,4.13
2022-10-17T13:28:13.588Z,2.88
2022-10-17T13:30:49.279Z,2.92
2022-10-17T13:33:29.928Z,3.20
2022-10-17T13:36:01.339Z,3.22
2022-10-17T13:38:32.476Z,2.97
2022-10-17T13:41:23.211Z,2.92
2022-10-17T13:43:51.433Z,2.88
2022-10-17T13:46:37.319Z,3.28
2022-10-17T13:49:13.822Z,2.95
2022-10-17T13:51:45.539Z,3.25
2022-10-17T13:54:31.610Z,2.92
2022-10-17T13:57:01.667Z,3.10
2022-10-17T13:59:35.121Z,2.90
2022-10-17T14:02:03.342Z,2.90
2022-10-17T14:04:44.718Z,3.13
2022-10-17T14:07:27.854Z,2.70
2022-10-17T14:09:57.120Z,2.55
2022-10-17T14:12:26.389Z,3.22
2022-10-17T14:15:11.305Z,2.92
2022-10-17T14:17:40.682Z,1.90
2022-10-17T14:23:21.520Z,1.95
2022-10-17T14:25:47.209Z,2.08
2022-10-17T14:28:18.418Z,2.10
2022-10-17T14:30:57.274Z,1.90
2022-10-17T14:33:29.592Z,1.70
2022-10-17T14:36:01.328Z,1.48
2022-10-17T14:38:30.723Z,1.20
2022-10-17T14:41:37.437Z,1.65
2022-10-17T14:44:02.820Z,1.60
2022-10-17T14:46:30.734Z,1.65
2022-10-17T14:49:05.262Z,1.63
2022-10-17T14:51:44.762Z,1.85
2022-10-17T14:54:25.791Z,1.35
2022-10-17T14:56:55.906Z,1.33
2022-10-17T14:59:52.354Z,1.38
2022-10-17T15:02:14.774Z,1.15
2022-10-17T15:04:43.394Z,1.58
2022-10-17T15:07:15.010Z,1.55
2022-10-17T15:09:43.538Z,1.27
2022-10-17T15:12:16.956Z,1.40
2022-10-17T15:14:47.852Z,1.27
2022-10-17T15:17:18.625Z,1.60
2022-10-17T15:19:46.508Z,1.60
2022-10-17T15:22:14.721Z,1.83
2022-10-17T15:24:42.900Z,1.35
2022-10-17T15:27:17.177Z,1.33
2022-10-17T15:29:46.900Z,1.20
2022-10-17T15:32:15.325Z,1.75
2022-10-17T15:34:43.123Z,1.48
2022-10-17T15:37:20.940Z,1.25
2022-10-17T15:39:52.980Z,1.38
2022-10-17T15:42:22.496Z,1.15
2022-10-17T15:44:51.692Z,1.80
2022-10-17T15:47:27.353Z,1.30
2022-10-17T15:49:55.760Z,1.55
2022-10-17T15:52:23.765Z,1.38
2022-10-17T15:54:51.700Z,1.42
2022-10-17T15:57:21.982Z,1.40
2022-10-17T15:59:52.455Z,1.20
2022-10-17T16:02:21.829Z,1.50
2022-10-17T16:04:53.163Z,2.15
2022-10-17T16:07:25.127Z,1.60
2022-10-17T16:09:52.993Z,1.35
2022-10-17T16:12:27.482Z,2.00
2022-10-17T16:14:57.264Z,1.25
2022-10-17T16:17:26.232Z,1.48
2022-10-17T16:19:53.998Z,1.60
2022-10-17T16:22:25.919Z,1.23
2022-10-17T16:24:58.374Z,1.63
2022-10-17T16:27:26.900Z,1.40
2022-10-17T16:29:56.005Z,1.15
2022-10-17T16:32:23.808Z,1.40
2022-10-17T16:34:51.670Z,1.23
2022-10-17T16:37:19.451Z,1.20
2022-10-17T16:39:52.226Z,1.52
2022-10-17T16:42:20.446Z,1.33
2022-10-17T16:44:48.311Z,1.10
2022-10-17T16:47:18.052Z,1.85
2022-10-17T16:49:46.410Z,1.58
2022-10-17T16:52:14.868Z,1.08
2022-10-17T16:54:42.863Z,1.35
2022-10-17T16:57:10.818Z,1.25
2022-10-17T16:59:38.643Z,1.40
2022-10-17T17:02:07.184Z,1.20
2022-10-17T17:04:36.425Z,1.50
2022-10-17T17:07:04.317Z,1.40
2022-10-17T17:09:32.195Z,1.40
2022-10-17T17:12:00.116Z,1.55
2022-10-17T17:14:27.907Z,2.10
2022-10-17T17:16:55.666Z,1.83
2022-10-17T17:19:23.632Z,1.50
2022-10-17T17:21:52.734Z,1.42
2022-10-17T17:24:22.011Z,1.70
2022-10-17T17:26:52.977Z,2.13
2022-10-17T17:29:21.623Z,1.50
2022-10-17T17:31:49.720Z,1.92
2022-10-17T17:35:44.766Z,1.83
2022-10-17T17:38:15.812Z,1.55
2022-10-17T17:40:50.664Z,1.40
2022-10-17T17:43:20.044Z,1.55
2022-10-17T17:45:48.382Z,1.67
2022-10-17T17:48:16.506Z,1.52
2022-10-17T17:50:46.703Z,1.27
2022-10-17T17:53:16.833Z,2.25
2022-10-17T17:55:45.272Z,2.05
2022-10-17T17:58:13.986Z,1.90
2022-10-17T18:00:42.976Z,1.70
2022-10-17T18:03:13.138Z,1.30
2022-10-17T18:05:41.968Z,1.60
2022-10-17T18:08:12.116Z,2.03
2022-10-17T18:10:40.507Z,1.67
2022-10-17T18:13:08.589Z,2.03
2022-10-17T18:15:38.224Z,1.67
2022-10-17T18:18:09.033Z,1.55
2022-10-17T18:20:43.980Z,1.75
2022-10-17T18:23:13.961Z,2.17
2022-10-17T18:25:45.269Z,1.75
2022-10-17T18:28:13.309Z,1.80
2022-10-17T18:30:41.737Z,1.85
2022-10-17T18:33:10.483Z,1.50
2022-10-17T18:35:38.678Z,1.92
2022-10-17T18:38:06.804Z,2.17
2022-10-17T18:40:36.345Z,1.90
2022-10-17T18:43:04.557Z,2.67
2022-10-17T18:45:32.802Z,2.00
2022-10-17T18:49:53.461Z,2.00
2022-10-17T18:52:21.237Z,1.98
2022-10-17T18:54:49.084Z,2.50
2022-10-17T18:57:17.067Z,1.88
2022-10-17T18:59:44.962Z,1.85
2022-10-17T19:02:13.868Z,2.10
2022-10-17T19:04:41.755Z,2.05
2022-10-17T19:07:13.369Z,2.45
2022-10-17T19:09:41.858Z,2.38
2022-10-17T19:12:10.433Z,2.50
2022-10-17T19:14:38.656Z,2.85
2022-10-17T19:17:06.558Z,3.58
2022-10-17T19:19:34.827Z,2.83
2022-10-17T19:22:03.365Z,3.55
2022-10-17T19:24:32.457Z,3.70
2022-10-17T19:27:02.512Z,3.13
2022-10-17T19:29:32.019Z,3.00
2022-10-17T19:32:00.691Z,2.83
2022-10-17T19:34:28.690Z,2.25
2022-10-17T19:36:56.658Z,3.45
2022-10-17T19:39:26.675Z,3.25
2022-10-17T19:41:55.904Z,2.92
2022-10-17T19:44:23.841Z,3.13
2022-10-17T19:46:51.946Z,3.25
2022-10-17T19:49:19.796Z,3.30
2022-10-17T19:51:47.837Z,3.97
2022-10-17T19:54:18.380Z,3.13
2022-10-17T19:56:46.126Z,4.10
2022-10-17T19:59:17.297Z,3.85
2022-10-17T20:01:46.291Z,4.35
2022-10-17T20:04:14.397Z,4.15
2022-10-17T20:06:43.159Z,4.03
2022-10-17T20:09:16.562Z,4.80
2022-10-17T20:11:45.774Z,4.63
2022-10-17T20:14:15.170Z,4.60
2022-10-17T20:16:44.650Z,5.00
2022-10-17T20:19:14.129Z,5.15
2022-10-17T20:21:43.318Z,4.80
2022-10-17T20:24:14.008Z,4.35
2022-10-17T20:26:41.902Z,4.68
2022-10-17T20:29:13.251Z,4.78
2022-10-17T20:31:44.782Z,5.43
2022-10-17T20:34:15.488Z,5.00
2022-10-17T20:36:44.031Z,5.28
2022-10-17T20:39:13.498Z,5.45
2022-10-17T20:41:41.805Z,5.03
2022-10-17T20:44:10.959Z,5.72
2022-10-17T20:46:44.892Z,5.72
2022-10-17T20:49:25.034Z,5.80
2022-10-17T20:51:52.880Z,5.15
2022-10-17T20:54:21.915Z,5.72
2022-10-17T20:56:49.941Z,5.20
2022-10-17T20:59:18.752Z,5.20
2022-10-17T21:01:47.279Z,6.07
2022-10-17T21:04:44.257Z,4.95
2022-10-17T21:07:05.060Z,5.25
2022-10-17T21:09:33.027Z,5.75
2022-10-17T21:14:36.278Z,5.05
2022-10-17T21:17:05.426Z,5.15
2022-10-17T21:19:33.349Z,5.10
2022-10-17T21:22:01.375Z,5.28
2022-10-17T21:24:31.470Z,5.22
2022-10-17T21:27:00.309Z,5.53
2022-10-17T21:29:28.478Z,5.90
2022-10-17T21:31:56.279Z,5.38
2022-10-17T21:34:25.460Z,5.78
2022-10-17T21:36:53.898Z,5.60
2022-10-17T21:39:22.818Z,5.53
2022-10-17T21:41:52.790Z,5.53
2022-10-17T21:44:22.450Z,5.00
2022-10-17T21:46:50.806Z,5.35
2022-10-17T21:49:20.357Z,5.97
2022-10-17T21:51:49.023Z,6.45
2022-10-17T21:54:17.725Z,5.57
2022-10-17T21:56:45.675Z,5.30
2022-10-17T21:59:14.888Z,5.80
2022-10-17T22:01:44.949Z,6.07
2022-10-17T22:04:15.202Z,4.68
2022-10-17T22:06:44.964Z,5.43
2022-10-17T22:09:18.584Z,5.57
2022-10-17T22:11:48.364Z,5.63
2022-10-17T22:14:20.354Z,5.32
2022-10-17T22:16:49.272Z,5.70
2022-10-17T22:19:19.632Z,5.78
2022-10-17T22:21:47.570Z,5.60
2022-10-17T22:24:17.458Z,6.22
2022-10-17T22:26:45.550Z,5.40
2022-10-17T22:29:13.977Z,6.93
2022-10-17T22:31:43.509Z,5.40
2022-10-17T22:34:13.475Z,5.05
2022-10-17T22:36:41.661Z,6.13
2022-10-17T22:39:09.761Z,5.28
2022-10-17T22:41:37.559Z,5.05
2022-10-17T22:44:06.086Z,6.22
2022-10-17T22:46:34.124Z,5.32
2022-10-17T22:49:03.329Z,5.70
2022-10-17T22:51:31.116Z,5.80
2022-10-17T22:53:59.006Z,5.65
2022-10-17T22:56:26.936Z,6.00
2022-10-17T22:58:54.719Z,5.50
2022-10-17T23:01:24.880Z,6.18
2022-10-17T23:03:53.573Z,5.88
2022-10-17T23:06:24.860Z,5.43
2022-10-17T23:08:54.036Z,6.63
2022-10-17T23:11:21.839Z,5.85
2022-10-17T23:13:49.806Z,6.60
2022-10-17T23:16:17.922Z,5.65
2022-10-17T23:18:45.766Z,6.40
2022-10-17T23:21:13.664Z,4.95
2022-10-17T23:23:43.191Z,5.55
2022-10-17T23:26:12.764Z,6.28
2022-10-17T23:28:41.702Z,5.63
2022-10-17T23:31:14.729Z,6.13
2022-10-17T23:33:44.768Z,5.65
2022-10-17T23:36:14.208Z,4.95
2022-10-17T23:38:44.468Z,6.78
2022-10-17T23:41:12.982Z,5.38
2022-10-17T23:43:41.502Z,5.47
2022-10-17T23:46:09.908Z,5.60
2022-10-17T23:48:38.709Z,5.68
2022-10-17T23:51:07.205Z,5.30
2022-10-17T23:53:35.037Z,5.43
2022-10-17T23:56:04.644Z,5.70
2022-10-17T23:58:32.661Z,5.13
